<?xml version="1.0" encoding="UTF-8" standalone="no" ?>
<gpx xmlns="http://www.topografix.com/GPX/1/1" xmlns:xsi="http://www.w3.org/2001/XMLSchema-instance" xsi:schemaLocation="http://www.topografix.com/GPX/1/1 http://www.topografix.com/GPX/1/1/gpx.xsd" version="1.1" creator="VisuGPX - https://www.visugpx.com">
  <metadata>
    <name>Transcaucasie: Géorgie + Arménie</name>
  </metadata>
  <trk>
    <name><![CDATA[Tour d'Europe: étape 495]]></name>
    <extensions>
      <line xmlns="http://www.topografix.com/GPX/gpx_style/0/2">
        <color>FF0000</color>
        <width>4</width>
      </line>
    </extensions>
    <trkseg>
      <trkpt lat="41.26485" lon="43.5912">
        <ele>1959.158819</ele>
        <time>2021-11-05T04:50:43.212Z</time>
      </trkpt>
      <trkpt lat="41.26585" lon="43.59179">
        <ele>1959.259785</ele>
        <time>2021-11-05T04:58:48.183Z</time>
      </trkpt>
      <trkpt lat="41.26698" lon="43.58965">
        <ele>1959.770855</ele>
        <time>2021-11-05T04:59:37.164Z</time>
      </trkpt>
      <trkpt lat="41.26813" lon="43.58745">
        <ele>1957.866238</ele>
        <time>2021-11-05T05:00:20.195Z</time>
      </trkpt>
      <trkpt lat="41.27001" lon="43.58622">
        <ele>1958.005814</ele>
        <time>2021-11-05T05:01:06.175Z</time>
      </trkpt>
      <trkpt lat="41.27214" lon="43.58494">
        <ele>1958.110758</ele>
        <time>2021-11-05T05:01:58.233Z</time>
      </trkpt>
      <trkpt lat="41.27422" lon="43.58369">
        <ele>1954.887143</ele>
        <time>2021-11-05T05:02:38.190Z</time>
      </trkpt>
      <trkpt lat="41.27614" lon="43.58205">
        <ele>1955.931858</ele>
        <time>2021-11-05T05:03:26.186Z</time>
      </trkpt>
      <trkpt lat="41.27781" lon="43.58008">
        <ele>1952.514063</ele>
        <time>2021-11-05T05:04:17.178Z</time>
      </trkpt>
      <trkpt lat="41.27985" lon="43.57767">
        <ele>1943.390831</ele>
        <time>2021-11-05T05:04:57.184Z</time>
      </trkpt>
      <trkpt lat="41.28173" lon="43.57551">
        <ele>1932.691925</ele>
        <time>2021-11-05T05:05:26.176Z</time>
      </trkpt>
      <trkpt lat="41.28351" lon="43.57334">
        <ele>1922.09546</ele>
        <time>2021-11-05T05:05:47.172Z</time>
      </trkpt>
      <trkpt lat="41.28518" lon="43.57141">
        <ele>1916.792742</ele>
        <time>2021-11-05T05:06:08.196Z</time>
      </trkpt>
      <trkpt lat="41.28663" lon="43.56973">
        <ele>1914.173821</ele>
        <time>2021-11-05T05:06:29.188Z</time>
      </trkpt>
      <trkpt lat="41.28896" lon="43.56702">
        <ele>1907.403616</ele>
        <time>2021-11-05T05:07:08.185Z</time>
      </trkpt>
      <trkpt lat="41.29073" lon="43.56501">
        <ele>1909.337321</ele>
        <time>2021-11-05T05:07:56.204Z</time>
      </trkpt>
      <trkpt lat="41.2922" lon="43.56269">
        <ele>1908.509485</ele>
        <time>2021-11-05T05:08:37.187Z</time>
      </trkpt>
      <trkpt lat="41.29334" lon="43.56024">
        <ele>1907.166968</ele>
        <time>2021-11-05T05:09:37.183Z</time>
      </trkpt>
      <trkpt lat="41.29455" lon="43.5575">
        <ele>1901.764933</ele>
        <time>2021-11-05T05:10:21.166Z</time>
      </trkpt>
      <trkpt lat="41.29652" lon="43.55553">
        <ele>1891.262811</ele>
        <time>2021-11-05T05:10:44.208Z</time>
      </trkpt>
      <trkpt lat="41.29848" lon="43.55419">
        <ele>1885.325594</ele>
        <time>2021-11-05T05:11:04.234Z</time>
      </trkpt>
      <trkpt lat="41.30017" lon="43.55136">
        <ele>1881.285899</ele>
        <time>2021-11-05T05:11:36.178Z</time>
      </trkpt>
      <trkpt lat="41.3019" lon="43.54843">
        <ele>1881.264458</ele>
        <time>2021-11-05T05:12:16.200Z</time>
      </trkpt>
      <trkpt lat="41.30332" lon="43.54603">
        <ele>1881.683661</ele>
        <time>2021-11-05T05:12:56.187Z</time>
      </trkpt>
      <trkpt lat="41.30513" lon="43.54274">
        <ele>1875.360071</ele>
        <time>2021-11-05T05:13:34.213Z</time>
      </trkpt>
      <trkpt lat="41.30651" lon="43.54017">
        <ele>1871.09816</ele>
        <time>2021-11-05T05:14:04.169Z</time>
      </trkpt>
      <trkpt lat="41.308" lon="43.53731">
        <ele>1865.819343</ele>
        <time>2021-11-05T05:14:46.185Z</time>
      </trkpt>
      <trkpt lat="41.30956" lon="43.53474">
        <ele>1864.076427</ele>
        <time>2021-11-05T05:15:26.171Z</time>
      </trkpt>
      <trkpt lat="41.3111" lon="43.53247">
        <ele>1870.11928</ele>
        <time>2021-11-05T05:16:21.190Z</time>
      </trkpt>
      <trkpt lat="41.31282" lon="43.52996">
        <ele>1866.120307</ele>
        <time>2021-11-05T05:16:57.202Z</time>
      </trkpt>
      <trkpt lat="41.31426" lon="43.52785">
        <ele>1861.994526</ele>
        <time>2021-11-05T05:17:20.186Z</time>
      </trkpt>
      <trkpt lat="41.3164" lon="43.52471">
        <ele>1853.272989</ele>
        <time>2021-11-05T05:17:57.182Z</time>
      </trkpt>
      <trkpt lat="41.31838" lon="43.52185">
        <ele>1846.195372</ele>
        <time>2021-11-05T05:18:34.212Z</time>
      </trkpt>
      <trkpt lat="41.31986" lon="43.51967">
        <ele>1846.965328</ele>
        <time>2021-11-05T05:19:14.191Z</time>
      </trkpt>
      <trkpt lat="41.32148" lon="43.51734">
        <ele>1847.484293</ele>
        <time>2021-11-05T05:19:56.158Z</time>
      </trkpt>
      <trkpt lat="41.32323" lon="43.51479">
        <ele>1842.922377</ele>
        <time>2021-11-05T05:20:36.168Z</time>
      </trkpt>
      <trkpt lat="41.32516" lon="43.51198">
        <ele>1836.774581</ele>
        <time>2021-11-05T05:21:16.181Z</time>
      </trkpt>
      <trkpt lat="41.3273" lon="43.50971">
        <ele>1828.418965</ele>
        <time>2021-11-05T05:21:56.197Z</time>
      </trkpt>
      <trkpt lat="41.32901" lon="43.50773">
        <ele>1823.824394</ele>
        <time>2021-11-05T05:22:36.199Z</time>
      </trkpt>
      <trkpt lat="41.33031" lon="43.50537">
        <ele>1824.337105</ele>
        <time>2021-11-05T05:23:24.217Z</time>
      </trkpt>
      <trkpt lat="41.33159" lon="43.50306">
        <ele>1827.67741</ele>
        <time>2021-11-05T05:24:12.190Z</time>
      </trkpt>
      <trkpt lat="41.33304" lon="43.50044">
        <ele>1827.639433</ele>
        <time>2021-11-05T05:25:15.187Z</time>
      </trkpt>
      <trkpt lat="41.3344" lon="43.49796">
        <ele>1823.164275</ele>
        <time>2021-11-05T05:25:59.201Z</time>
      </trkpt>
      <trkpt lat="41.33627" lon="43.49529">
        <ele>1815.720404</ele>
        <time>2021-11-05T05:26:39.192Z</time>
      </trkpt>
      <trkpt lat="41.33814" lon="43.49405">
        <ele>1811.774876</ele>
        <time>2021-11-05T05:27:19.206Z</time>
      </trkpt>
      <trkpt lat="41.34052" lon="43.49315">
        <ele>1805.271229</ele>
        <time>2021-11-05T05:27:53.196Z</time>
      </trkpt>
      <trkpt lat="41.3435" lon="43.4935">
        <ele>1795.675124</ele>
        <time>2021-11-05T05:28:27.187Z</time>
      </trkpt>
      <trkpt lat="41.34582" lon="43.49378">
        <ele>1789.018353</ele>
        <time>2021-11-05T05:28:53.194Z</time>
      </trkpt>
      <trkpt lat="41.34848" lon="43.49411">
        <ele>1784.821267</ele>
        <time>2021-11-05T05:29:30.196Z</time>
      </trkpt>
      <trkpt lat="41.35086" lon="43.4944">
        <ele>1779.988708</ele>
        <time>2021-11-05T05:30:10.196Z</time>
      </trkpt>
      <trkpt lat="41.35339" lon="43.49472">
        <ele>1772.033908</ele>
        <time>2021-11-05T05:30:50.197Z</time>
      </trkpt>
      <trkpt lat="41.35584" lon="43.49503">
        <ele>1768.523121</ele>
        <time>2021-11-05T05:31:30.219Z</time>
      </trkpt>
      <trkpt lat="41.35793" lon="43.49527">
        <ele>1766.120198</ele>
        <time>2021-11-05T05:32:10.186Z</time>
      </trkpt>
      <trkpt lat="41.36048" lon="43.49563">
        <ele>1761.429682</ele>
        <time>2021-11-05T05:32:50.196Z</time>
      </trkpt>
      <trkpt lat="41.36257" lon="43.49645">
        <ele>1757.876765</ele>
        <time>2021-11-05T05:33:30.201Z</time>
      </trkpt>
      <trkpt lat="41.36484" lon="43.49697">
        <ele>1754.260061</ele>
        <time>2021-11-05T05:34:12.177Z</time>
      </trkpt>
      <trkpt lat="41.36726" lon="43.49646">
        <ele>1745.797908</ele>
        <time>2021-11-05T05:34:42.200Z</time>
      </trkpt>
      <trkpt lat="41.3694" lon="43.49619">
        <ele>1738.829375</ele>
        <time>2021-11-05T05:35:02.215Z</time>
      </trkpt>
      <trkpt lat="41.37144" lon="43.4958">
        <ele>1734.740559</ele>
        <time>2021-11-05T05:35:25.218Z</time>
      </trkpt>
      <trkpt lat="41.37358" lon="43.49447">
        <ele>1739.356455</ele>
        <time>2021-11-05T05:36:20.183Z</time>
      </trkpt>
      <trkpt lat="41.37546" lon="43.49328">
        <ele>1742.997533</ele>
        <time>2021-11-05T05:37:28.195Z</time>
      </trkpt>
      <trkpt lat="41.37749" lon="43.49276">
        <ele>1747.192208</ele>
        <time>2021-11-05T05:38:36.180Z</time>
      </trkpt>
      <trkpt lat="41.37986" lon="43.49229">
        <ele>1748.351902</ele>
        <time>2021-11-05T05:39:32.206Z</time>
      </trkpt>
      <trkpt lat="41.38185" lon="43.49194">
        <ele>1745.493748</ele>
        <time>2021-11-05T05:40:12.215Z</time>
      </trkpt>
      <trkpt lat="41.38379" lon="43.49158">
        <ele>1743.437066</ele>
        <time>2021-11-05T05:40:52.199Z</time>
      </trkpt>
      <trkpt lat="41.38579" lon="43.49117">
        <ele>1743.106521</ele>
        <time>2021-11-05T05:41:34.196Z</time>
      </trkpt>
      <trkpt lat="41.38786" lon="43.4908">
        <ele>1743.654662</ele>
        <time>2021-11-05T05:42:20.204Z</time>
      </trkpt>
      <trkpt lat="41.38993" lon="43.49037">
        <ele>1745.203168</ele>
        <time>2021-11-05T06:00:37.199Z</time>
      </trkpt>
      <trkpt lat="41.39223" lon="43.48993">
        <ele>1743.60204</ele>
        <time>2021-11-05T06:01:28.202Z</time>
      </trkpt>
      <trkpt lat="41.39434" lon="43.48952">
        <ele>1743.496742</ele>
        <time>2021-11-05T06:02:12.197Z</time>
      </trkpt>
      <trkpt lat="41.39658" lon="43.48907">
        <ele>1743.298476</ele>
        <time>2021-11-05T06:02:57.180Z</time>
      </trkpt>
      <trkpt lat="41.39892" lon="43.48869">
        <ele>1739.602034</ele>
        <time>2021-11-05T06:03:38.230Z</time>
      </trkpt>
      <trkpt lat="41.40109" lon="43.48853">
        <ele>1741.710238</ele>
        <time>2021-11-05T06:04:28.213Z</time>
      </trkpt>
      <trkpt lat="41.40313" lon="43.48882">
        <ele>1739.434644</ele>
        <time>2021-11-05T06:05:10.195Z</time>
      </trkpt>
      <trkpt lat="41.40508" lon="43.48768">
        <ele>1743.326511</ele>
        <time>2021-11-05T06:05:57.178Z</time>
      </trkpt>
      <trkpt lat="41.40701" lon="43.48633">
        <ele>1747.142313</ele>
        <time>2021-11-05T06:06:44.182Z</time>
      </trkpt>
      <trkpt lat="41.40912" lon="43.48518">
        <ele>1748.464853</ele>
        <time>2021-11-05T06:08:03.208Z</time>
      </trkpt>
      <trkpt lat="41.41099" lon="43.48363">
        <ele>1742.541847</ele>
        <time>2021-11-05T06:09:02.230Z</time>
      </trkpt>
      <trkpt lat="41.41265" lon="43.48332">
        <ele>1729.620533</ele>
        <time>2021-11-05T06:10:00.224Z</time>
      </trkpt>
      <trkpt lat="41.41351" lon="43.48576">
        <ele>1723.503637</ele>
        <time>2021-11-05T06:10:55.220Z</time>
      </trkpt>
      <trkpt lat="41.41405" lon="43.48623">
        <ele>1703.345147</ele>
        <time>2021-11-05T06:13:40.225Z</time>
      </trkpt>
      <trkpt lat="41.41464" lon="43.48311">
        <ele>1683.585129</ele>
        <time>2021-11-05T06:14:21.222Z</time>
      </trkpt>
      <trkpt lat="41.41488" lon="43.48643">
        <ele>1671.871369</ele>
        <time>2021-11-05T06:15:01.214Z</time>
      </trkpt>
      <trkpt lat="41.41431" lon="43.48922">
        <ele>1667.030126</ele>
        <time>2021-11-05T06:15:24.195Z</time>
      </trkpt>
      <trkpt lat="41.41535" lon="43.48885">
        <ele>1663.127933</ele>
        <time>2021-11-05T06:16:07.199Z</time>
      </trkpt>
      <trkpt lat="41.41596" lon="43.48556">
        <ele>1655.941519</ele>
        <time>2021-11-05T06:16:47.211Z</time>
      </trkpt>
      <trkpt lat="41.41721" lon="43.48211">
        <ele>1651.125307</ele>
        <time>2021-11-05T06:17:27.203Z</time>
      </trkpt>
      <trkpt lat="41.41895" lon="43.48019">
        <ele>1651.506031</ele>
        <time>2021-11-05T06:18:15.233Z</time>
      </trkpt>
      <trkpt lat="41.42099" lon="43.47904">
        <ele>1655.372074</ele>
        <time>2021-11-05T06:19:03.198Z</time>
      </trkpt>
      <trkpt lat="41.42271" lon="43.47733">
        <ele>1652.542588</ele>
        <time>2021-11-05T06:19:48.240Z</time>
      </trkpt>
      <trkpt lat="41.42363" lon="43.47473">
        <ele>1651.65705</ele>
        <time>2021-11-05T06:20:35.206Z</time>
      </trkpt>
      <trkpt lat="41.42563" lon="43.47331">
        <ele>1646.686721</ele>
        <time>2021-11-05T06:21:37.199Z</time>
      </trkpt>
      <trkpt lat="41.42794" lon="43.47242">
        <ele>1648.069611</ele>
        <time>2021-11-05T06:22:34.184Z</time>
      </trkpt>
      <trkpt lat="41.42942" lon="43.47065">
        <ele>1651.579824</ele>
        <time>2021-11-05T06:23:14.201Z</time>
      </trkpt>
      <trkpt lat="41.432" lon="43.46926">
        <ele>1643.127782</ele>
        <time>2021-11-05T06:23:55.237Z</time>
      </trkpt>
      <trkpt lat="41.43443" lon="43.46874">
        <ele>1640.971158</ele>
        <time>2021-11-05T06:24:35.215Z</time>
      </trkpt>
      <trkpt lat="41.43673" lon="43.468">
        <ele>1639.00846</ele>
        <time>2021-11-05T06:25:16.214Z</time>
      </trkpt>
      <trkpt lat="41.43872" lon="43.4676">
        <ele>1634.278971</ele>
        <time>2021-11-05T06:25:59.216Z</time>
      </trkpt>
      <trkpt lat="41.44086" lon="43.46869">
        <ele>1631.104612</ele>
        <time>2021-11-05T06:26:39.234Z</time>
      </trkpt>
      <trkpt lat="41.44321" lon="43.46817">
        <ele>1625.944759</ele>
        <time>2021-11-05T06:27:21.218Z</time>
      </trkpt>
      <trkpt lat="41.44573" lon="43.46827">
        <ele>1617.523669</ele>
        <time>2021-11-05T06:28:01.204Z</time>
      </trkpt>
      <trkpt lat="41.4485" lon="43.46833">
        <ele>1612.546186</ele>
        <time>2021-11-05T06:28:41.199Z</time>
      </trkpt>
      <trkpt lat="41.45106" lon="43.46918">
        <ele>1607.098729</ele>
        <time>2021-11-05T06:29:21.198Z</time>
      </trkpt>
      <trkpt lat="41.45332" lon="43.47025">
        <ele>1601.74109</ele>
        <time>2021-11-05T06:30:01.204Z</time>
      </trkpt>
      <trkpt lat="41.4561" lon="43.46893">
        <ele>1596.615741</ele>
        <time>2021-11-05T06:30:41.216Z</time>
      </trkpt>
      <trkpt lat="41.45777" lon="43.46637">
        <ele>1597.077368</ele>
        <time>2021-11-05T06:31:21.181Z</time>
      </trkpt>
      <trkpt lat="41.45799" lon="43.46343">
        <ele>1591.100922</ele>
        <time>2021-11-05T06:32:03.203Z</time>
      </trkpt>
      <trkpt lat="41.45783" lon="43.46026">
        <ele>1569.475009</ele>
        <time>2021-11-05T06:32:43.201Z</time>
      </trkpt>
      <trkpt lat="41.45863" lon="43.45764">
        <ele>1563.824629</ele>
        <time>2021-11-05T06:33:05.312Z</time>
      </trkpt>
      <trkpt lat="41.45842" lon="43.45419">
        <ele>1553.921292</ele>
        <time>2021-11-05T06:33:36.195Z</time>
      </trkpt>
      <trkpt lat="41.45773" lon="43.45147">
        <ele>1552.142277</ele>
        <time>2021-11-05T06:34:26.191Z</time>
      </trkpt>
      <trkpt lat="41.45867" lon="43.44812">
        <ele>1542.847676</ele>
        <time>2021-11-05T06:35:06.213Z</time>
      </trkpt>
      <trkpt lat="41.46092" lon="43.44558">
        <ele>1522.269069</ele>
        <time>2021-11-05T06:35:46.203Z</time>
      </trkpt>
      <trkpt lat="41.46326" lon="43.44318">
        <ele>1510.96374</ele>
        <time>2021-11-05T06:36:28.230Z</time>
      </trkpt>
      <trkpt lat="41.46489" lon="43.44067">
        <ele>1507.942263</ele>
        <time>2021-11-05T06:37:08.201Z</time>
      </trkpt>
      <trkpt lat="41.46589" lon="43.43885">
        <ele>1500.595964</ele>
        <time>2021-11-05T06:37:48.209Z</time>
      </trkpt>
      <trkpt lat="41.46647" lon="43.43551">
        <ele>1489.640952</ele>
        <time>2021-11-05T06:38:28.209Z</time>
      </trkpt>
      <trkpt lat="41.46737" lon="43.43231">
        <ele>1482.103238</ele>
        <time>2021-11-05T06:39:08.226Z</time>
      </trkpt>
      <trkpt lat="41.46672" lon="43.42898">
        <ele>1475.656431</ele>
        <time>2021-11-05T06:39:42.192Z</time>
      </trkpt>
      <trkpt lat="41.46592" lon="43.42538">
        <ele>1461.901145</ele>
        <time>2021-11-05T06:40:22.254Z</time>
      </trkpt>
      <trkpt lat="41.46469" lon="43.42221">
        <ele>1453.035826</ele>
        <time>2021-11-05T06:40:56.189Z</time>
      </trkpt>
      <trkpt lat="41.46429" lon="43.41884">
        <ele>1443.8589</ele>
        <time>2021-11-05T06:41:33.206Z</time>
      </trkpt>
      <trkpt lat="41.4651" lon="43.41615">
        <ele>1448.664393</ele>
        <time>2021-11-05T06:42:42.210Z</time>
      </trkpt>
      <trkpt lat="41.46657" lon="43.41309">
        <ele>1441.092639</ele>
        <time>2021-11-05T06:43:22.202Z</time>
      </trkpt>
      <trkpt lat="41.46774" lon="43.40969">
        <ele>1427.105507</ele>
        <time>2021-11-05T06:43:56.227Z</time>
      </trkpt>
      <trkpt lat="41.46874" lon="43.40632">
        <ele>1416.713566</ele>
        <time>2021-11-05T06:44:36.223Z</time>
      </trkpt>
      <trkpt lat="41.4695" lon="43.4039">
        <ele>1410.339877</ele>
        <time>2021-11-05T06:44:56.197Z</time>
      </trkpt>
      <trkpt lat="41.47054" lon="43.40078">
        <ele>1397.525187</ele>
        <time>2021-11-05T06:45:25.223Z</time>
      </trkpt>
      <trkpt lat="41.47289" lon="43.3977">
        <ele>1380.193792</ele>
        <time>2021-11-05T06:46:06.211Z</time>
      </trkpt>
      <trkpt lat="41.47493" lon="43.39546">
        <ele>1375.32852</ele>
        <time>2021-11-05T06:46:39.213Z</time>
      </trkpt>
      <trkpt lat="41.47757" lon="43.39383">
        <ele>1371.199877</ele>
        <time>2021-11-05T06:47:19.212Z</time>
      </trkpt>
      <trkpt lat="41.4789" lon="43.3905">
        <ele>1364.460625</ele>
        <time>2021-11-05T06:47:55.237Z</time>
      </trkpt>
      <trkpt lat="41.48038" lon="43.38756">
        <ele>1356.166397</ele>
        <time>2021-11-05T06:48:27.203Z</time>
      </trkpt>
      <trkpt lat="41.48076" lon="43.38475">
        <ele>1354.411039</ele>
        <time>2021-11-05T06:49:10.215Z</time>
      </trkpt>
      <trkpt lat="41.48174" lon="43.38215">
        <ele>1357.761223</ele>
        <time>2021-11-05T06:50:11.246Z</time>
      </trkpt>
      <trkpt lat="41.48347" lon="43.37912">
        <ele>1339.97221</ele>
        <time>2021-11-05T06:50:52.205Z</time>
      </trkpt>
      <trkpt lat="41.48368" lon="43.37637">
        <ele>1329.731671</ele>
        <time>2021-11-05T06:51:12.200Z</time>
      </trkpt>
      <trkpt lat="41.48478" lon="43.37286">
        <ele>1317.816472</ele>
        <time>2021-11-05T06:51:45.210Z</time>
      </trkpt>
      <trkpt lat="41.48473" lon="43.36892">
        <ele>1314.763534</ele>
        <time>2021-11-05T06:52:25.223Z</time>
      </trkpt>
      <trkpt lat="41.48435" lon="43.36505">
        <ele>1315.074768</ele>
        <time>2021-11-05T06:53:05.234Z</time>
      </trkpt>
      <trkpt lat="41.48454" lon="43.36192">
        <ele>1311.421875</ele>
        <time>2021-11-05T06:53:45.195Z</time>
      </trkpt>
      <trkpt lat="41.48508" lon="43.35887">
        <ele>1299.511621</ele>
        <time>2021-11-05T06:54:15.211Z</time>
      </trkpt>
      <trkpt lat="41.48672" lon="43.3561">
        <ele>1288.403884</ele>
        <time>2021-11-05T06:54:47.214Z</time>
      </trkpt>
      <trkpt lat="41.48764" lon="43.35283">
        <ele>1275.748881</ele>
        <time>2021-11-05T06:55:24.204Z</time>
      </trkpt>
      <trkpt lat="41.48836" lon="43.34903">
        <ele>1260.542559</ele>
        <time>2021-11-05T06:56:03.202Z</time>
      </trkpt>
      <trkpt lat="41.48858" lon="43.3462">
        <ele>1265.96284</ele>
        <time>2021-11-05T06:56:43.197Z</time>
      </trkpt>
      <trkpt lat="41.48996" lon="43.34255">
        <ele>1252.166343</ele>
        <time>2021-11-05T06:57:23.211Z</time>
      </trkpt>
      <trkpt lat="41.49068" lon="43.3397">
        <ele>1246.760397</ele>
        <time>2021-11-05T06:58:18.247Z</time>
      </trkpt>
      <trkpt lat="41.49124" lon="43.33641">
        <ele>1247.960184</ele>
        <time>2021-11-05T06:58:58.204Z</time>
      </trkpt>
      <trkpt lat="41.49046" lon="43.33307">
        <ele>1245.927214</ele>
        <time>2021-11-05T06:59:42.227Z</time>
      </trkpt>
      <trkpt lat="41.48971" lon="43.32987">
        <ele>1231.922946</ele>
        <time>2021-11-05T07:00:22.219Z</time>
      </trkpt>
      <trkpt lat="41.48893" lon="43.32736">
        <ele>1228.860254</ele>
        <time>2021-11-05T07:01:02.219Z</time>
      </trkpt>
      <trkpt lat="41.48853" lon="43.3243">
        <ele>1224.339924</ele>
        <time>2021-11-05T07:01:48.206Z</time>
      </trkpt>
      <trkpt lat="41.48793" lon="43.32184">
        <ele>1232.051633</ele>
        <time>2021-11-05T07:03:15.234Z</time>
      </trkpt>
      <trkpt lat="41.48804" lon="43.31933">
        <ele>1235.285358</ele>
        <time>2021-11-05T07:04:28.222Z</time>
      </trkpt>
      <trkpt lat="41.48766" lon="43.31679">
        <ele>1235.469239</ele>
        <time>2021-11-05T07:05:28.211Z</time>
      </trkpt>
      <trkpt lat="41.48635" lon="43.3144">
        <ele>1236.421156</ele>
        <time>2021-11-05T07:06:32.206Z</time>
      </trkpt>
      <trkpt lat="41.48607" lon="43.311">
        <ele>1232.605924</ele>
        <time>2021-11-05T07:07:12.214Z</time>
      </trkpt>
      <trkpt lat="41.48478" lon="43.308">
        <ele>1219.481725</ele>
        <time>2021-11-05T07:07:45.235Z</time>
      </trkpt>
      <trkpt lat="41.4838" lon="43.3045">
        <ele>1206.67344</ele>
        <time>2021-11-05T07:08:18.208Z</time>
      </trkpt>
      <trkpt lat="41.4832" lon="43.30067">
        <ele>1194.585236</ele>
        <time>2021-11-05T07:08:57.189Z</time>
      </trkpt>
      <trkpt lat="41.48302" lon="43.29762">
        <ele>1184.952699</ele>
        <time>2021-11-05T07:09:22.214Z</time>
      </trkpt>
      <trkpt lat="41.4824" lon="43.29412">
        <ele>1178.463089</ele>
        <time>2021-11-05T07:09:56.219Z</time>
      </trkpt>
      <trkpt lat="41.48224" lon="43.2911">
        <ele>1176.40502</ele>
        <time>2021-11-05T07:10:41.262Z</time>
      </trkpt>
      <trkpt lat="41.48184" lon="43.28779">
        <ele>1173.758851</ele>
        <time>2021-11-05T07:11:34.213Z</time>
      </trkpt>
      <trkpt lat="41.48111" lon="43.28506">
        <ele>1174.775727</ele>
        <time>2021-11-05T07:12:28.207Z</time>
      </trkpt>
      <trkpt lat="41.48086" lon="43.28227">
        <ele>1175.957966</ele>
        <time>2021-11-05T07:13:35.253Z</time>
      </trkpt>
      <trkpt lat="41.48215" lon="43.27904">
        <ele>1165.406008</ele>
        <time>2021-11-05T07:14:07.226Z</time>
      </trkpt>
      <trkpt lat="41.48335" lon="43.27659">
        <ele>1151.253756</ele>
        <time>2021-11-05T07:14:27.209Z</time>
      </trkpt>
      <trkpt lat="41.48415" lon="43.27325">
        <ele>1145.635563</ele>
        <time>2021-11-05T07:15:05.237Z</time>
      </trkpt>
      <trkpt lat="41.48425" lon="43.27032">
        <ele>1148.17507</ele>
        <time>2021-11-05T07:15:57.230Z</time>
      </trkpt>
      <trkpt lat="41.48631" lon="43.26799">
        <ele>1145.666878</ele>
        <time>2021-11-05T07:21:14.231Z</time>
      </trkpt>
      <trkpt lat="41.48836" lon="43.26826">
        <ele>1139.374966</ele>
        <time>2021-11-05T07:21:59.211Z</time>
      </trkpt>
      <trkpt lat="41.49023" lon="43.26707">
        <ele>1143.487941</ele>
        <time>2021-11-05T07:22:46.254Z</time>
      </trkpt>
      <trkpt lat="41.49234" lon="43.26685">
        <ele>1146.195705</ele>
        <time>2021-11-05T07:24:05.208Z</time>
      </trkpt>
      <trkpt lat="41.4947" lon="43.26612">
        <ele>1142.435924</ele>
        <time>2021-11-05T07:24:48.219Z</time>
      </trkpt>
      <trkpt lat="41.49654" lon="43.26485">
        <ele>1140.560934</ele>
        <time>2021-11-05T07:25:28.224Z</time>
      </trkpt>
      <trkpt lat="41.49861" lon="43.26327">
        <ele>1131.68642</ele>
        <time>2021-11-05T07:26:07.224Z</time>
      </trkpt>
      <trkpt lat="41.50117" lon="43.26332">
        <ele>1131.031873</ele>
        <time>2021-11-05T07:26:49.210Z</time>
      </trkpt>
      <trkpt lat="41.50323" lon="43.26287">
        <ele>1135.721177</ele>
        <time>2021-11-05T07:27:38.223Z</time>
      </trkpt>
      <trkpt lat="41.5053" lon="43.26154">
        <ele>1133.186785</ele>
        <time>2021-11-05T07:28:22.202Z</time>
      </trkpt>
      <trkpt lat="41.50747" lon="43.26126">
        <ele>1128.220481</ele>
        <time>2021-11-05T07:29:02.223Z</time>
      </trkpt>
      <trkpt lat="41.50953" lon="43.26136">
        <ele>1128.699635</ele>
        <time>2021-11-05T07:29:54.268Z</time>
      </trkpt>
      <trkpt lat="41.51169" lon="43.26128">
        <ele>1129.752916</ele>
        <time>2021-11-05T07:30:34.219Z</time>
      </trkpt>
      <trkpt lat="41.5137" lon="43.26173">
        <ele>1125.751649</ele>
        <time>2021-11-05T07:31:17.224Z</time>
      </trkpt>
      <trkpt lat="41.51565" lon="43.26119">
        <ele>1134.973683</ele>
        <time>2021-11-05T07:32:44.202Z</time>
      </trkpt>
      <trkpt lat="41.51686" lon="43.2593">
        <ele>1142.843367</ele>
        <time>2021-11-05T07:34:09.241Z</time>
      </trkpt>
      <trkpt lat="41.51927" lon="43.25961">
        <ele>1130.988903</ele>
        <time>2021-11-05T07:34:42.229Z</time>
      </trkpt>
      <trkpt lat="41.52157" lon="43.25978">
        <ele>1121.186505</ele>
        <time>2021-11-05T07:35:08.213Z</time>
      </trkpt>
      <trkpt lat="41.52286" lon="43.25956">
        <ele>1120.946676</ele>
        <time>2021-11-05T09:05:12.268Z</time>
      </trkpt>
    </trkseg>
  </trk>
</gpx>